This is the latest recevied weather packets stored in our database for station/object KM4CBK. If no packets are shown the sender has not sent any weather packets the latest 10 day(s).
| Time | Temp. | Humidity | Pressure | Rain* | Wind** | Luminosity | Snow |
|---|---|---|---|---|---|---|---|
| 1777229535 | 28.89° C | 58% | 1010.7 hPa | 0 mm | - | 506 W/m² | - |
| 1777229232 | 29.44° C | 55% | 1010.7 hPa | 0 mm | - | 126 W/m² | - |
| 1777228930 | 30° C | 54% | 1010.9 hPa | 0 mm | - | 634 W/m² | - |
| 1777228625 | 28.33° C | 60% | 1010.7 hPa | 0 mm | - | 711 W/m² | - |
| 1777228320 | 28.89° C | 58% | 1010.8 hPa | 0 mm | - | 597 W/m² | - |
| 1777228016 | 29.44° C | 61% | 1011.1 hPa | 0 mm | - | 762 W/m² | - |
| 1777227710 | 27.78° C | 63% | 1010.8 hPa | 0 mm | - | 784 W/m² | - |
| 1777227407 | 28.89° C | 60% | 1011.1 hPa | 0 mm | - | 165 W/m² | - |
| 1777227103 | 28.89° C | 59% | 1011.2 hPa | 0 mm | - | 702 W/m² | - |
| 1777226799 | 28.33° C | 61% | 1011.2 hPa | 0 mm | - | 208 W/m² | - |
| 1777226498 | 27.78° C | 62% | 1011.4 hPa | 0 mm | - | 513 W/m² | - |
| 1777226195 | 27.22° C | 65% | 1011.2 hPa | 0 mm | - | 434 W/m² | - |
| 1777225891 | 27.78° C | 64% | 1011.5 hPa | 0 mm | - | 297 W/m² | - |
| 1777225586 | 28.33° C | 64% | 1011.6 hPa | 0 mm | - | 612 W/m² | - |
| 1777225284 | 27.78° C | 64% | 1011.6 hPa | 0 mm | - | 628 W/m² | - |
| 1777224980 | 28.33° C | 64% | 1011.7 hPa | 0 mm | - | 592 W/m² | - |
| 1777224678 | 27.22° C | 67% | 1011.7 hPa | 0 mm | - | 210 W/m² | - |
| 1777224373 | 26.67° C | 67% | 1011.8 hPa | 0 mm | - | 721 W/m² | - |
| 1777224069 | 26.67° C | 71% | 1012 hPa | 0 mm | - | 571 W/m² | - |
| 1777223766 | 26.67° C | 68% | 1011.8 hPa | 0 mm | - | 480 W/m² | - |
| 1777223462 | 26.67° C | 70% | 1011.9 hPa | 0 mm | - | 521 W/m² | - |
| 1777223160 | 26.11° C | 71% | 1011.9 hPa | 0 mm | - | 596 W/m² | - |
| 1777222856 | 26.11° C | 73% | 1012 hPa | 0 mm | - | 621 W/m² | - |
| 1777222554 | 25.56° C | 74% | 1012.2 hPa | 0 mm | - | 539 W/m² | - |
| 1777222251 | 25° C | 77% | 1012.1 hPa | 0 mm | - | 412 W/m² | - |
* Rain latest hour (hover to see other rain measurements)
** Current wind speed in m/s (hover to see current wind gust speed)